createdAt,value
2022-12-08T00:01:16.081Z,30.30
2022-12-08T00:02:37.331Z,31.65
2022-12-08T00:04:04.377Z,30.80
2022-12-08T00:05:43.802Z,30.35
2022-12-08T00:07:23.242Z,32.22
2022-12-08T00:09:02.674Z,31.20
2022-12-08T00:10:48.013Z,32.30
2022-12-08T00:12:16.544Z,34.85
2022-12-08T00:13:37.678Z,35.80
2022-12-08T00:14:58.924Z,40.90
2022-12-08T00:16:20.140Z,33.95
2022-12-08T00:17:41.246Z,29.77
2022-12-08T00:19:02.381Z,30.38
2022-12-08T00:20:23.789Z,16.30
2022-12-08T00:21:44.996Z,19.35
2022-12-08T00:23:05.910Z,21.55
2022-12-08T00:24:31.942Z,15.13
2022-12-08T00:25:53.166Z,12.98
2022-12-08T00:27:16.244Z,26.67
2022-12-08T00:28:37.602Z,43.88
2022-12-08T00:29:58.562Z,13.90
2022-12-08T00:31:19.996Z,13.63
2022-12-08T00:32:41.257Z,14.57
2022-12-08T00:34:02.506Z,16.40
2022-12-08T00:35:23.362Z,15.85
2022-12-08T00:36:45.038Z,10.90
2022-12-08T00:38:06.094Z,9.85
2022-12-08T00:39:27.336Z,9.65
2022-12-08T00:40:48.657Z,9.30
2022-12-08T00:42:12.556Z,8.65
2022-12-08T00:43:33.537Z,8.15
2022-12-08T00:44:54.731Z,7.80
2022-12-08T00:46:15.872Z,9.70
2022-12-08T00:47:36.984Z,9.40
2022-12-08T00:48:58.167Z,9.25
2022-12-08T00:50:19.342Z,10.23
2022-12-08T00:51:40.606Z,10.65
2022-12-08T00:53:01.856Z,10.05
2022-12-08T00:54:23.395Z,11.63
2022-12-08T00:55:44.577Z,15.32
2022-12-08T00:57:05.719Z,17.00
2022-12-08T00:58:27.110Z,20.30
2022-12-08T00:59:47.982Z,21.52
2022-12-08T01:01:13.504Z,23.98
2022-12-08T01:02:34.786Z,24.25
2022-12-08T01:03:55.705Z,22.85
2022-12-08T01:05:16.855Z,27.25
2022-12-08T01:06:39.078Z,25.20
2022-12-08T01:08:00.227Z,24.33
2022-12-08T01:09:21.763Z,27.00
2022-12-08T01:10:42.709Z,33.78
2022-12-08T01:12:04.183Z,23.95
2022-12-08T01:13:25.399Z,23.70
2022-12-08T01:14:46.785Z,15.70
2022-12-08T01:16:08.507Z,27.27
2022-12-08T01:17:29.674Z,22.20
2022-12-08T01:18:51.360Z,19.42
2022-12-08T01:20:12.489Z,18.88
2022-12-08T01:21:33.543Z,19.55
2022-12-08T01:22:54.685Z,19.45
2022-12-08T01:24:18.360Z,15.68
2022-12-08T01:25:39.537Z,13.60
2022-12-08T01:27:00.429Z,14.80
2022-12-08T01:28:21.743Z,13.70
2022-12-08T01:29:42.731Z,11.48
2022-12-08T01:31:04.215Z,15.90
2022-12-08T01:32:25.135Z,17.02
2022-12-08T01:33:47.130Z,20.15
2022-12-08T01:35:08.457Z,19.05
2022-12-08T01:36:32.298Z,18.38
2022-12-08T01:37:52.919Z,21.40
2022-12-08T01:39:16.984Z,22.17
2022-12-08T01:40:37.806Z,21.92
2022-12-08T01:41:59.061Z,21.10
2022-12-08T01:43:20.940Z,23.17
2022-12-08T01:44:42.292Z,24.23
2022-12-08T01:46:03.778Z,23.27
2022-12-08T01:47:29.324Z,22.42
2022-12-08T01:48:54.519Z,23.92
2022-12-08T01:50:18.222Z,22.17
2022-12-08T01:51:47.993Z,21.98
2022-12-08T01:54:42.111Z,21.33
2022-12-08T01:56:10.740Z,22.73
2022-12-08T01:57:41.018Z,23.33
2022-12-08T01:59:03.368Z,31.30
2022-12-08T02:00:24.858Z,47.75
2022-12-08T02:01:45.860Z,66.53
2022-12-08T02:03:12.411Z,27.65
2022-12-08T02:04:33.437Z,24.50
2022-12-08T02:05:55.074Z,46.70
2022-12-08T02:07:16.733Z,37.25
2022-12-08T02:08:40.545Z,29.13
2022-12-08T02:10:03.405Z,29.13
2022-12-08T02:11:24.434Z,27.60
2022-12-08T02:12:47.309Z,27.85
2022-12-08T02:14:10.347Z,28.08
2022-12-08T02:15:56.246Z,28.65
2022-12-08T02:17:40.375Z,27.30
2022-12-08T02:21:14.170Z,26.80
2022-12-08T02:22:47.292Z,26.52
2022-12-08T02:24:30.749Z,25.80
2022-12-08T02:26:33.587Z,24.10
2022-12-08T02:28:37.257Z,23.88
2022-12-08T02:30:07.740Z,22.30
2022-12-08T02:31:58.615Z,22.25
2022-12-08T02:33:47.146Z,22.75
2022-12-08T02:35:39.092Z,22.83
2022-12-08T02:37:15.240Z,24.58
2022-12-08T02:38:50.388Z,26.42
2022-12-08T02:40:14.486Z,27.13
2022-12-08T02:41:59.506Z,29.98
2022-12-08T02:43:35.307Z,29.02
2022-12-08T02:45:24.780Z,30.35
2022-12-08T02:46:58.194Z,30.58
2022-12-08T02:48:19.536Z,18.73
2022-12-08T02:49:40.740Z,13.40
2022-12-08T02:51:02.503Z,9.48
2022-12-08T02:52:23.243Z,8.05
2022-12-08T02:53:45.067Z,7.28
2022-12-08T02:55:14.312Z,8.07
2022-12-08T02:57:02.597Z,8.75
2022-12-08T02:58:29.615Z,8.88
2022-12-08T03:00:09.212Z,9.00
2022-12-08T03:01:43.631Z,9.77
2022-12-08T03:03:13.707Z,8.30
2022-12-08T03:04:37.414Z,7.65
2022-12-08T03:06:11.223Z,8.48
2022-12-08T03:07:40.686Z,11.15
2022-12-08T03:09:14.362Z,11.27
2022-12-08T03:10:46.500Z,12.45
2022-12-08T03:12:25.641Z,11.35
2022-12-08T03:13:53.201Z,13.20
2022-12-08T03:15:20.165Z,11.43
2022-12-08T03:16:44.117Z,11.18
2022-12-08T03:18:09.571Z,11.02
2022-12-08T03:19:38.175Z,11.93
2022-12-08T03:21:00.130Z,13.57
2022-12-08T03:22:23.687Z,15.43
2022-12-08T03:23:47.134Z,14.25
2022-12-08T03:25:12.716Z,17.27
2022-12-08T03:26:53.069Z,17.27
2022-12-08T03:28:14.174Z,18.52
2022-12-08T03:29:35.278Z,18.75
2022-12-08T03:31:00.140Z,21.85
2022-12-08T03:33:00.353Z,20.27
2022-12-08T03:34:23.987Z,21.33
2022-12-08T03:35:46.401Z,21.95
2022-12-08T03:37:07.714Z,23.60
2022-12-08T03:38:38.518Z,22.85
2022-12-08T03:39:59.488Z,26.95
2022-12-08T03:41:22.237Z,21.92
2022-12-08T03:42:43.437Z,20.05
2022-12-08T03:44:04.513Z,16.70
2022-12-08T03:45:26.156Z,14.85
2022-12-08T03:46:47.319Z,14.88
2022-12-08T03:48:08.630Z,12.35
2022-12-08T03:49:29.494Z,12.82
2022-12-08T03:50:50.759Z,12.73
2022-12-08T03:52:12.382Z,13.82
2022-12-08T03:53:33.843Z,12.93
2022-12-08T03:54:54.773Z,13.50
2022-12-08T03:56:34.309Z,14.90
2022-12-08T03:57:55.115Z,25.50
2022-12-08T03:59:16.362Z,30.10
2022-12-08T04:00:37.253Z,35.28
2022-12-08T04:01:58.648Z,42.58
2022-12-08T04:03:20.022Z,43.97
2022-12-08T04:04:40.923Z,39.22
2022-12-08T04:06:02.030Z,34.70
2022-12-08T04:07:23.271Z,34.65
2022-12-08T04:08:44.758Z,33.38
2022-12-08T04:10:06.497Z,33.35
2022-12-08T04:11:27.749Z,34.60
2022-12-08T04:12:48.877Z,30.55
2022-12-08T04:14:10.129Z,32.50
2022-12-08T04:15:31.173Z,35.40
2022-12-08T04:16:52.490Z,36.28
2022-12-08T04:18:14.250Z,39.92
2022-12-08T04:19:35.078Z,37.85
2022-12-08T04:20:56.293Z,33.38
2022-12-08T04:22:17.469Z,33.53
2022-12-08T04:23:38.990Z,34.20
2022-12-08T04:24:59.902Z,35.55
2022-12-08T04:26:21.045Z,36.22
2022-12-08T04:27:42.045Z,40.55
2022-12-08T04:29:03.296Z,49.75
2022-12-08T04:30:24.550Z,64.60
2022-12-08T04:31:46.118Z,53.58
2022-12-08T04:33:07.370Z,50.80
2022-12-08T04:34:28.693Z,46.72
2022-12-08T04:35:49.989Z,49.30
2022-12-08T04:37:11.282Z,38.75
2022-12-08T04:38:33.617Z,35.80
2022-12-08T04:39:54.753Z,29.95
2022-12-08T04:41:15.694Z,27.50
2022-12-08T04:42:37.398Z,24.40
2022-12-08T04:43:58.406Z,27.67
2022-12-08T04:45:19.416Z,26.52
2022-12-08T04:46:43.642Z,33.22
2022-12-08T04:48:05.242Z,34.95
2022-12-08T04:49:26.073Z,39.08
2022-12-08T04:50:47.199Z,36.92
2022-12-08T04:52:08.337Z,35.95
2022-12-08T04:53:29.675Z,34.85
2022-12-08T04:54:50.766Z,33.60
2022-12-08T04:56:13.552Z,34.65
2022-12-08T04:57:34.462Z,38.72
2022-12-08T04:58:55.662Z,45.35
2022-12-08T05:00:17.967Z,39.17
2022-12-08T05:01:38.953Z,38.78
2022-12-08T05:03:00.026Z,40.95
2022-12-08T05:04:21.061Z,40.95
2022-12-08T05:05:42.717Z,41.25
2022-12-08T05:07:04.021Z,48.63
2022-12-08T05:08:25.120Z,49.17
2022-12-08T05:09:46.166Z,55.13
2022-12-08T05:11:09.860Z,55.05
2022-12-08T05:12:31.076Z,55.03
2022-12-08T05:13:52.361Z,57.50
2022-12-08T05:15:13.621Z,59.10
2022-12-08T05:16:34.760Z,52.92
2022-12-08T05:17:56.177Z,48.80
2022-12-08T05:19:18.070Z,52.17
2022-12-08T05:20:39.251Z,66.40
2022-12-08T05:22:00.263Z,69.50
2022-12-08T05:23:21.387Z,57.08
2022-12-08T05:24:47.422Z,57.50
2022-12-08T05:26:08.880Z,47.50
2022-12-08T05:27:30.016Z,46.22
2022-12-08T05:28:51.159Z,46.03
2022-12-08T05:30:12.588Z,47.92
2022-12-08T05:31:33.715Z,46.38
2022-12-08T05:32:54.875Z,42.80
2022-12-08T05:34:15.915Z,35.03
2022-12-08T05:35:36.938Z,35.28
2022-12-08T05:36:58.095Z,46.65
2022-12-08T05:38:19.389Z,45.10
2022-12-08T05:39:40.829Z,41.55
2022-12-08T05:41:01.908Z,44.05
2022-12-08T05:42:24.931Z,45.08
2022-12-08T05:43:47.135Z,36.80
2022-12-08T05:45:08.980Z,46.38
2022-12-08T05:46:29.809Z,52.45
2022-12-08T05:47:53.493Z,57.53
2022-12-08T05:49:14.843Z,55.15
2022-12-08T05:50:36.118Z,55.40
2022-12-08T05:51:58.979Z,40.20
2022-12-08T05:53:20.613Z,37.53
2022-12-08T05:54:41.835Z,41.00
2022-12-08T05:56:03.336Z,52.08
2022-12-08T05:57:24.438Z,50.70
2022-12-08T05:58:45.278Z,57.70
2022-12-08T06:00:07.223Z,45.17
2022-12-08T06:01:32.968Z,64.40
2022-12-08T06:02:54.197Z,30.70
2022-12-08T06:04:15.500Z,35.20
2022-12-08T06:05:36.902Z,29.20
2022-12-08T06:06:58.090Z,32.10
2022-12-08T06:08:19.262Z,32.50
2022-12-08T06:09:40.342Z,34.28
2022-12-08T06:11:02.226Z,32.95
2022-12-08T06:12:23.109Z,28.52
2022-12-08T06:13:44.332Z,25.58
2022-12-08T06:15:06.622Z,28.20
2022-12-08T06:16:28.801Z,32.28
2022-12-08T06:17:49.846Z,28.48
2022-12-08T06:19:10.955Z,24.00
2022-12-08T06:20:32.506Z,21.50
2022-12-08T06:21:53.514Z,27.80
2022-12-08T06:23:14.758Z,29.05
2022-12-08T06:24:35.855Z,28.70
2022-12-08T06:26:05.582Z,78.72
2022-12-08T06:27:26.507Z,133.93
2022-12-08T06:28:49.367Z,117.57
2022-12-08T06:30:10.793Z,271.05
2022-12-08T06:31:31.991Z,51.08
2022-12-08T06:32:52.970Z,32.22
2022-12-08T06:34:14.258Z,31.60
2022-12-08T06:35:35.505Z,34.05
2022-12-08T06:36:56.323Z,30.63
2022-12-08T06:38:17.464Z,31.90
2022-12-08T06:39:38.465Z,35.58
2022-12-08T06:40:59.841Z,61.65
2022-12-08T06:42:39.868Z,57.30
2022-12-08T06:45:21.548Z,32.22
2022-12-08T06:46:42.565Z,33.90
2022-12-08T06:48:03.927Z,36.40
2022-12-08T06:49:25.147Z,54.83
2022-12-08T06:50:46.240Z,78.00
2022-12-08T06:52:07.404Z,49.85
2022-12-08T06:53:28.676Z,49.50
2022-12-08T06:54:50.167Z,36.47
2022-12-08T06:56:11.840Z,32.80
2022-12-08T06:57:32.932Z,31.45
2022-12-08T06:58:54.107Z,30.83
2022-12-08T07:00:15.893Z,43.83
2022-12-08T07:01:36.946Z,41.10
2022-12-08T07:02:58.594Z,58.28
2022-12-08T07:04:19.668Z,53.72
2022-12-08T07:05:41.267Z,54.28
2022-12-08T07:07:02.444Z,47.85
2022-12-08T07:08:23.737Z,57.38
2022-12-08T07:09:44.814Z,70.95
2022-12-08T07:11:10.583Z,68.78
2022-12-08T07:12:31.749Z,62.47
2022-12-08T07:13:53.030Z,64.80
2022-12-08T07:15:14.243Z,83.78
2022-12-08T07:16:35.305Z,79.13
2022-12-08T07:18:00.085Z,80.13
2022-12-08T07:19:21.500Z,84.45
2022-12-08T07:20:42.537Z,113.70
2022-12-08T07:22:03.756Z,95.18
2022-12-08T07:23:24.796Z,76.13
2022-12-08T07:24:45.727Z,81.65
2022-12-08T07:26:08.427Z,69.13
2022-12-08T07:27:29.531Z,64.93
2022-12-08T07:28:50.678Z,68.80
2022-12-08T07:30:13.106Z,72.75
2022-12-08T07:31:34.207Z,74.40
2022-12-08T07:32:55.370Z,85.45
2022-12-08T07:34:16.435Z,82.07
2022-12-08T07:35:37.414Z,86.70
2022-12-08T07:36:58.647Z,86.05
2022-12-08T07:38:20.163Z,83.22
2022-12-08T07:39:41.408Z,85.50
2022-12-08T07:41:02.637Z,76.75
2022-12-08T07:42:23.929Z,88.82
2022-12-08T07:43:45.623Z,74.47
2022-12-08T07:45:07.628Z,54.22
2022-12-08T07:46:28.607Z,53.28
2022-12-08T07:47:49.761Z,55.75
2022-12-08T07:49:10.803Z,73.15
2022-12-08T07:50:31.970Z,48.92
2022-12-08T07:51:53.260Z,44.53
2022-12-08T07:53:14.744Z,47.25
2022-12-08T07:54:36.006Z,40.97
2022-12-08T07:55:57.817Z,42.03
2022-12-08T07:57:19.036Z,39.78
2022-12-08T07:58:41.031Z,32.80
2022-12-08T08:00:02.878Z,35.72
2022-12-08T08:01:34.489Z,40.67
2022-12-08T08:02:55.424Z,32.40
2022-12-08T08:04:16.871Z,30.85
2022-12-08T08:05:38.204Z,30.63
2022-12-08T08:06:59.595Z,26.08
2022-12-08T08:08:21.068Z,37.17
2022-12-08T08:09:42.320Z,33.95
2022-12-08T08:11:15.807Z,36.28
2022-12-08T08:12:40.527Z,30.23
2022-12-08T08:14:01.771Z,32.90
2022-12-08T08:15:23.002Z,41.97
2022-12-08T08:16:47.523Z,34.10
2022-12-08T08:18:08.829Z,40.90
2022-12-08T08:19:30.247Z,47.03
2022-12-08T08:20:51.607Z,39.08
2022-12-08T08:22:12.802Z,43.55
2022-12-08T08:23:34.896Z,46.42
2022-12-08T08:24:55.884Z,49.35
2022-12-08T08:26:17.286Z,36.72
2022-12-08T08:27:38.386Z,33.13
2022-12-08T08:28:59.566Z,43.80
2022-12-08T08:30:21.384Z,36.53
2022-12-08T08:31:42.570Z,35.75
2022-12-08T08:33:03.827Z,38.15
2022-12-08T08:34:24.800Z,38.13
2022-12-08T08:35:46.034Z,38.90
2022-12-08T08:37:07.345Z,33.50
2022-12-08T08:38:29.293Z,29.38
2022-12-08T08:39:51.625Z,33.70
2022-12-08T08:41:12.696Z,37.47
2022-12-08T08:42:34.774Z,32.92
2022-12-08T08:43:55.572Z,29.48
2022-12-08T08:45:16.819Z,27.25
2022-12-08T08:46:37.964Z,25.23
2022-12-08T08:47:59.662Z,26.30
2022-12-08T08:49:20.843Z,26.90
2022-12-08T08:50:42.022Z,23.30
2022-12-08T08:52:04.671Z,17.92
2022-12-08T08:53:26.108Z,31.80
2022-12-08T08:54:47.166Z,28.73
2022-12-08T08:56:19.414Z,30.52
2022-12-08T08:57:40.604Z,25.55
2022-12-08T08:59:03.106Z,22.00
2022-12-08T09:00:24.069Z,22.00
2022-12-08T09:01:46.435Z,33.42
2022-12-08T09:03:07.725Z,26.98
2022-12-08T09:04:29.889Z,24.83
2022-12-08T09:05:51.617Z,27.88
2022-12-08T09:07:13.605Z,24.20
2022-12-08T09:08:34.720Z,24.50
2022-12-08T09:10:01.617Z,22.10
2022-12-08T09:11:23.841Z,23.77
2022-12-08T09:12:44.882Z,22.33
2022-12-08T09:14:07.967Z,24.48
2022-12-08T09:15:30.315Z,27.90
2022-12-08T09:16:52.084Z,35.00
2022-12-08T09:18:13.178Z,31.20
2022-12-08T09:19:34.654Z,29.73
2022-12-08T09:20:55.852Z,30.52
2022-12-08T09:22:16.885Z,35.40
2022-12-08T09:23:38.080Z,33.40
2022-12-08T09:24:58.923Z,33.50
2022-12-08T09:26:24.047Z,37.13
2022-12-08T09:27:44.901Z,47.65
2022-12-08T09:29:06.024Z,54.80
2022-12-08T09:30:27.137Z,59.28
2022-12-08T09:31:48.026Z,80.40
2022-12-08T09:33:09.143Z,67.82
2022-12-08T09:34:31.323Z,62.00
2022-12-08T09:35:52.458Z,58.92
2022-12-08T09:37:14.267Z,58.63
2022-12-08T09:38:35.591Z,58.50
2022-12-08T09:39:57.918Z,59.70
2022-12-08T09:41:40.631Z,59.88
2022-12-08T09:43:20.075Z,58.45
2022-12-08T09:44:57.282Z,45.92
2022-12-08T09:46:19.517Z,51.20
2022-12-08T09:47:58.011Z,50.92
2022-12-08T09:49:25.165Z,52.63
2022-12-08T09:50:57.111Z,42.65
2022-12-08T09:52:33.632Z,44.08
2022-12-08T09:54:24.247Z,45.92
2022-12-08T09:55:54.651Z,43.10
2022-12-08T09:57:19.495Z,39.88
2022-12-08T09:58:57.132Z,34.40
2022-12-08T10:00:18.338Z,39.60
2022-12-08T10:01:42.120Z,42.22
2022-12-08T10:03:03.483Z,39.20
2022-12-08T10:04:34.905Z,37.28
2022-12-08T10:06:21.819Z,38.65
2022-12-08T10:07:49.416Z,36.28
2022-12-08T10:09:21.193Z,36.40
2022-12-08T10:10:47.355Z,37.38
2022-12-08T10:12:32.078Z,35.47
2022-12-08T10:14:10.289Z,31.05
2022-12-08T10:15:31.136Z,30.58
2022-12-08T10:16:58.583Z,31.98
2022-12-08T10:18:30.849Z,35.47
2022-12-08T10:20:12.399Z,37.60
2022-12-08T10:21:33.840Z,38.63
2022-12-08T10:23:07.739Z,45.30
2022-12-08T10:24:41.171Z,33.20
2022-12-08T10:26:15.366Z,41.10
2022-12-08T10:27:37.435Z,34.10
2022-12-08T10:29:02.904Z,33.63
2022-12-08T10:30:24.279Z,39.15
2022-12-08T10:31:45.925Z,35.58
2022-12-08T10:33:15.530Z,27.80
2022-12-08T10:35:05.281Z,39.25
2022-12-08T10:38:06.567Z,33.88
2022-12-08T10:39:34.384Z,36.95
2022-12-08T10:41:09.568Z,33.28
2022-12-08T10:42:38.211Z,30.27
2022-12-08T10:44:01.775Z,28.95
2022-12-08T10:45:23.273Z,28.90
2022-12-08T10:46:44.382Z,28.25
2022-12-08T10:48:17.104Z,26.50
2022-12-08T10:49:38.728Z,25.30
2022-12-08T10:51:00.659Z,27.98
2022-12-08T10:52:25.365Z,31.98
2022-12-08T10:53:47.239Z,37.10
2022-12-08T10:55:17.937Z,35.20
2022-12-08T10:56:39.173Z,30.70
2022-12-08T10:58:00.484Z,29.63
2022-12-08T10:59:21.721Z,29.90
2022-12-08T11:00:43.054Z,32.47
2022-12-08T11:02:09.009Z,58.20
2022-12-08T11:03:39.702Z,46.80
2022-12-08T11:05:00.692Z,37.15
2022-12-08T11:06:30.357Z,36.88
2022-12-08T11:07:53.965Z,35.90
2022-12-08T11:09:17.984Z,37.40
2022-12-08T11:10:44.974Z,33.40
2022-12-08T11:12:15.333Z,34.60
2022-12-08T11:13:41.573Z,35.30
2022-12-08T11:15:05.299Z,35.20
2022-12-08T11:16:27.583Z,70.30
2022-12-08T11:18:01.188Z,58.47
2022-12-08T11:19:27.605Z,58.38
2022-12-08T11:21:00.297Z,58.33
2022-12-08T11:22:42.615Z,62.05
2022-12-08T11:24:16.110Z,49.88
2022-12-08T11:25:37.353Z,45.25
2022-12-08T11:27:02.665Z,41.38
2022-12-08T11:28:25.070Z,44.50
2022-12-08T11:29:46.362Z,45.60
2022-12-08T11:31:33.726Z,40.05
2022-12-08T11:33:17.902Z,39.78
2022-12-08T11:34:48.030Z,32.30
2022-12-08T11:36:14.538Z,42.22
2022-12-08T11:37:41.565Z,44.78
2022-12-08T11:39:04.678Z,51.60
2022-12-08T11:40:32.777Z,53.00
2022-12-08T11:41:56.350Z,48.67
2022-12-08T11:43:28.468Z,59.35
2022-12-08T11:44:53.233Z,58.38
2022-12-08T11:46:46.703Z,44.53
2022-12-08T11:48:23.979Z,48.53
2022-12-08T11:51:13.522Z,35.38
2022-12-08T11:52:45.229Z,35.83
2022-12-08T11:54:24.146Z,31.98
2022-12-08T11:55:58.774Z,40.97
2022-12-08T11:57:23.209Z,33.30
2022-12-08T11:58:50.558Z,29.25
2022-12-08T12:00:15.181Z,40.78
2022-12-08T12:01:42.213Z,34.05
2022-12-08T12:03:32.443Z,31.83
2022-12-08T12:05:10.082Z,34.08
2022-12-08T12:06:54.574Z,42.13
2022-12-08T12:08:43.764Z,43.72
2022-12-08T12:10:23.215Z,47.47
2022-12-08T12:12:09.123Z,50.17
2022-12-08T12:13:39.348Z,50.03
2022-12-08T12:17:06.277Z,45.30
2022-12-08T12:18:46.363Z,49.72
2022-12-08T12:21:57.239Z,46.80
2022-12-08T12:23:36.406Z,39.05
2022-12-08T12:24:57.529Z,33.90
2022-12-08T12:26:22.556Z,34.38
2022-12-08T12:27:45.565Z,33.95
2022-12-08T12:29:26.095Z,35.60
2022-12-08T12:31:06.437Z,31.17
2022-12-08T12:32:43.123Z,31.95
2022-12-08T12:34:15.473Z,32.60
2022-12-08T12:35:43.157Z,33.88
2022-12-08T12:37:10.451Z,31.05
2022-12-08T12:38:59.193Z,35.35
2022-12-08T12:40:24.157Z,26.77
2022-12-08T12:41:52.118Z,30.23
2022-12-08T12:43:24.374Z,29.45
2022-12-08T12:44:45.412Z,31.15
2022-12-08T12:46:43.599Z,41.58
2022-12-08T12:48:04.411Z,66.45
2022-12-08T12:49:40.942Z,56.50
2022-12-08T12:51:39.876Z,64.60
2022-12-08T12:53:02.905Z,43.33
2022-12-08T12:54:25.913Z,38.17
2022-12-08T12:56:03.964Z,37.47
2022-12-08T12:57:39.854Z,26.85
2022-12-08T12:59:29.436Z,27.55
2022-12-08T13:02:34.145Z,32.55
2022-12-08T13:04:09.777Z,38.10
2022-12-08T13:05:48.973Z,38.45
2022-12-08T13:07:21.515Z,38.85
2022-12-08T13:08:52.629Z,42.80
2022-12-08T13:10:25.948Z,41.83
2022-12-08T13:11:51.882Z,43.70
2022-12-08T13:13:12.825Z,35.10
2022-12-08T13:14:46.777Z,33.33
2022-12-08T13:16:18.575Z,28.27
2022-12-08T13:17:45.753Z,25.17
2022-12-08T13:19:16.049Z,26.92
2022-12-08T13:20:46.013Z,25.65
2022-12-08T13:22:45.060Z,27.73
2022-12-08T13:24:17.899Z,34.42
2022-12-08T13:25:44.945Z,33.92
2022-12-08T13:27:05.683Z,33.85
2022-12-08T13:28:31.285Z,62.88
2022-12-08T13:30:31.235Z,36.92
2022-12-08T13:33:25.783Z,59.03
2022-12-08T13:34:55.490Z,55.38
2022-12-08T13:36:26.123Z,34.00
2022-12-08T13:37:54.927Z,44.55
2022-12-08T13:39:26.753Z,53.58
2022-12-08T13:41:08.797Z,31.63
2022-12-08T13:42:51.085Z,55.75
2022-12-08T13:45:18.659Z,64.95
2022-12-08T13:46:57.940Z,47.00
2022-12-08T13:48:23.377Z,39.25
2022-12-08T13:51:10.573Z,97.40
2022-12-08T13:57:27.492Z,80.50
2022-12-08T13:58:48.683Z,39.42
2022-12-08T14:00:18.399Z,36.65
2022-12-08T14:01:44.866Z,33.70
2022-12-08T14:03:05.984Z,45.22
2022-12-08T14:04:54.288Z,37.55
2022-12-08T14:06:25.019Z,35.22
2022-12-08T14:07:48.951Z,31.42
2022-12-08T14:09:27.250Z,54.90
2022-12-08T14:10:57.641Z,54.22
2022-12-08T14:12:25.280Z,45.03
2022-12-08T14:13:46.076Z,39.45
2022-12-08T14:15:08.124Z,42.10
2022-12-08T14:16:36.095Z,39.63
2022-12-08T14:17:57.950Z,43.42
2022-12-08T14:19:28.004Z,48.90
2022-12-08T14:21:22.402Z,41.13
2022-12-08T14:22:44.417Z,31.98
2022-12-08T14:24:05.874Z,37.60
2022-12-08T14:25:30.182Z,37.55
2022-12-08T14:26:54.224Z,80.70
2022-12-08T14:28:15.105Z,51.28
2022-12-08T14:30:09.945Z,52.83
2022-12-08T14:31:31.171Z,39.83
2022-12-08T14:32:58.795Z,43.78
2022-12-08T14:34:19.623Z,43.58
2022-12-08T14:35:40.836Z,48.10
2022-12-08T14:37:02.030Z,64.82
2022-12-08T14:38:25.850Z,75.88
2022-12-08T14:39:47.329Z,74.72
2022-12-08T14:41:11.974Z,62.85
2022-12-08T14:42:44.126Z,58.72
2022-12-08T14:44:23.325Z,57.72
2022-12-08T14:45:44.220Z,62.33
2022-12-08T14:47:08.453Z,66.63
2022-12-08T14:48:38.807Z,75.28
2022-12-08T14:50:01.141Z,85.95
2022-12-08T14:51:22.081Z,83.60
2022-12-08T14:52:44.846Z,83.60
2022-12-08T14:54:09.933Z,89.40
2022-12-08T14:55:36.457Z,84.03
2022-12-08T14:56:58.241Z,81.10
2022-12-08T14:58:29.515Z,83.35
2022-12-08T14:59:50.809Z,87.93
2022-12-08T15:01:17.095Z,88.25
2022-12-08T15:02:46.330Z,75.82
2022-12-08T15:04:14.027Z,79.90
2022-12-08T15:05:35.196Z,79.43
2022-12-08T15:07:01.140Z,79.03
2022-12-08T15:08:22.693Z,69.18
2022-12-08T15:09:47.263Z,68.13
2022-12-08T15:11:24.770Z,67.43
2022-12-08T15:13:08.861Z,58.28
2022-12-08T15:14:33.593Z,59.58
2022-12-08T15:15:57.782Z,72.15
2022-12-08T15:17:34.468Z,121.50
2022-12-08T15:19:05.937Z,100.90
2022-12-08T15:20:31.665Z,77.95
2022-12-08T15:21:57.075Z,79.20
2022-12-08T15:23:27.445Z,79.13
2022-12-08T15:24:48.896Z,84.05
2022-12-08T15:26:21.924Z,85.57
2022-12-08T15:27:50.275Z,94.18
2022-12-08T15:29:20.898Z,107.32
2022-12-08T15:30:42.169Z,115.78
2022-12-08T15:32:09.720Z,134.85
2022-12-08T15:33:30.699Z,126.15
2022-12-08T15:34:52.185Z,134.05
2022-12-08T15:36:13.740Z,150.95
2022-12-08T15:37:34.713Z,157.38
2022-12-08T15:38:55.675Z,147.75
2022-12-08T15:40:22.907Z,146.07
2022-12-08T15:41:43.860Z,106.90
2022-12-08T15:43:04.783Z,106.53
2022-12-08T15:44:26.377Z,109.68
2022-12-08T15:45:58.509Z,143.95
2022-12-08T15:47:23.864Z,180.05
2022-12-08T15:48:45.166Z,220.43
2022-12-08T15:50:07.558Z,236.15
2022-12-08T15:51:30.991Z,234.27
2022-12-08T15:52:52.181Z,275.92
2022-12-08T15:54:13.575Z,188.50
2022-12-08T15:55:38.744Z,163.93
2022-12-08T15:57:18.983Z,281.15
2022-12-08T15:58:57.927Z,214.95
2022-12-08T16:00:50.537Z,420.70
2022-12-08T16:02:02.917Z,228.77
2022-12-08T16:05:40.970Z,370.17
2022-12-08T16:08:51.813Z,162.40
2022-12-08T16:10:19.115Z,62.75
2022-12-08T16:12:08.306Z,46.58
2022-12-08T16:17:02.381Z,51.88
2022-12-08T16:18:28.016Z,59.88
2022-12-08T16:19:49.499Z,58.58
2022-12-08T16:21:34.285Z,52.63
2022-12-08T16:22:59.657Z,44.90
2022-12-08T16:24:34.443Z,42.67
2022-12-08T16:26:20.162Z,43.45
2022-12-08T16:29:21.147Z,60.72
2022-12-08T16:30:42.162Z,61.22
2022-12-08T16:32:03.041Z,73.90
2022-12-08T16:33:24.511Z,128.20
2022-12-08T16:34:45.474Z,111.63
2022-12-08T16:36:06.974Z,93.95
2022-12-08T16:37:28.821Z,89.43
2022-12-08T16:38:50.244Z,95.50
2022-12-08T16:40:12.584Z,75.18
2022-12-08T16:41:52.193Z,64.50
2022-12-08T16:43:13.081Z,47.95
2022-12-08T16:44:34.093Z,53.15
2022-12-08T16:45:55.268Z,51.95
2022-12-08T16:47:16.487Z,63.88
2022-12-08T16:48:37.965Z,77.28
2022-12-08T16:49:59.474Z,66.22
2022-12-08T16:51:26.438Z,68.78
2022-12-08T16:52:49.044Z,53.08
2022-12-08T16:54:09.787Z,45.65
2022-12-08T16:55:31.364Z,34.05
2022-12-08T16:56:52.622Z,33.03
2022-12-08T16:58:14.592Z,47.53
2022-12-08T16:59:35.488Z,56.03
2022-12-08T17:01:02.354Z,61.30
2022-12-08T17:02:23.812Z,75.70
2022-12-08T17:04:01.414Z,69.15
2022-12-08T17:05:27.328Z,65.13
2022-12-08T17:06:50.960Z,55.65
2022-12-08T17:08:13.327Z,55.40
2022-12-08T17:09:34.517Z,64.68
2022-12-08T17:11:07.438Z,91.38
2022-12-08T17:12:28.962Z,97.43
2022-12-08T17:13:49.855Z,88.05
2022-12-08T17:15:15.082Z,95.65
2022-12-08T17:16:36.059Z,95.68
2022-12-08T17:17:57.229Z,100.60
2022-12-08T17:19:19.009Z,81.32
2022-12-08T17:20:40.448Z,85.68
2022-12-08T17:22:02.328Z,72.82
2022-12-08T17:23:26.430Z,39.70
2022-12-08T17:24:47.650Z,60.95
2022-12-08T17:26:09.852Z,40.25
2022-12-08T17:27:31.246Z,59.53
2022-12-08T17:29:00.443Z,79.13
2022-12-08T17:30:21.942Z,128.10
2022-12-08T17:31:42.994Z,126.05
2022-12-08T17:33:04.516Z,205.68
2022-12-08T17:34:31.595Z,144.70
2022-12-08T17:35:54.351Z,136.57
2022-12-08T17:37:16.082Z,87.10
2022-12-08T17:38:37.956Z,61.17
2022-12-08T17:39:59.268Z,58.15
2022-12-08T17:41:20.045Z,43.28
2022-12-08T17:42:42.457Z,49.40
2022-12-08T17:44:03.536Z,57.95
2022-12-08T17:45:24.535Z,62.65
2022-12-08T17:46:52.103Z,57.47
2022-12-08T17:48:15.029Z,95.50
2022-12-08T17:49:38.898Z,97.45
2022-12-08T17:51:00.250Z,82.93
2022-12-08T17:52:21.030Z,66.47
2022-12-08T17:53:42.677Z,86.85
2022-12-08T17:55:04.194Z,76.20
2022-12-08T17:56:25.078Z,96.63
2022-12-08T17:57:46.127Z,89.80
2022-12-08T17:59:07.423Z,101.00
2022-12-08T18:00:29.079Z,89.15
2022-12-08T18:01:52.555Z,91.20
2022-12-08T18:03:13.920Z,70.50
2022-12-08T18:04:34.819Z,68.53
2022-12-08T18:05:56.109Z,62.25
2022-12-08T18:07:17.462Z,48.33
2022-12-08T18:08:39.715Z,36.95
2022-12-08T18:10:00.882Z,46.72
2022-12-08T18:11:22.079Z,61.63
2022-12-08T18:12:43.281Z,101.25
2022-12-08T18:14:10.195Z,80.03
2022-12-08T18:15:37.474Z,45.50
2022-12-08T18:17:00.363Z,39.80
2022-12-08T18:18:22.735Z,47.88
2022-12-08T18:19:44.151Z,51.03
2022-12-08T18:21:06.020Z,52.90
2022-12-08T18:22:27.219Z,39.20
2022-12-08T18:23:48.099Z,45.13
2022-12-08T18:25:10.889Z,33.70
2022-12-08T18:26:32.421Z,62.13
2022-12-08T18:27:53.313Z,53.25
2022-12-08T18:29:14.274Z,55.97
2022-12-08T18:30:35.152Z,60.40
2022-12-08T18:31:56.469Z,126.85
2022-12-08T18:33:17.800Z,120.00
2022-12-08T18:34:38.933Z,138.25
2022-12-08T18:35:59.969Z,92.82
2022-12-08T18:37:21.021Z,123.38
2022-12-08T18:38:43.154Z,121.63
2022-12-08T18:40:04.943Z,96.05
2022-12-08T18:41:30.992Z,86.50
2022-12-08T18:42:55.157Z,81.70
2022-12-08T18:44:16.069Z,187.15
2022-12-08T18:45:39.992Z,182.32
2022-12-08T18:47:02.491Z,192.10
2022-12-08T18:48:23.343Z,232.65
2022-12-08T18:49:44.286Z,245.07
2022-12-08T18:51:13.341Z,225.63